sensor_id;sensor_type;location;lat;lon;timestamp;temperature;humidity
72440;DHT22;60446;50.752;4.352;2023-07-08T00:00:26;19.30;64.80
72440;DHT22;60446;50.752;4.352;2023-07-08T00:02:53;19.30;64.60
72440;DHT22;60446;50.752;4.352;2023-07-08T00:05:22;19.20;64.80
72440;DHT22;60446;50.752;4.352;2023-07-08T00:07:50;19.20;65.80
72440;DHT22;60446;50.752;4.352;2023-07-08T00:10:23;19.10;65.10
72440;DHT22;60446;50.752;4.352;2023-07-08T00:12:55;19.10;65.10
72440;DHT22;60446;50.752;4.352;2023-07-08T00:15:28;19.10;64.90
72440;DHT22;60446;50.752;4.352;2023-07-08T00:17:59;19.10;64.60
72440;DHT22;60446;50.752;4.352;2023-07-08T00:20:39;19.10;64.90
72440;DHT22;60446;50.752;4.352;2023-07-08T00:23:09;19.10;65.10
72440;DHT22;60446;50.752;4.352;2023-07-08T00:25:37;19.10;64.90
72440;DHT22;60446;50.752;4.352;2023-07-08T00:28:20;19.10;64.60
72440;DHT22;60446;50.752;4.352;2023-07-08T00:30:48;19.00;65.30
72440;DHT22;60446;50.752;4.352;2023-07-08T00:33:16;19.00;65.30
72440;DHT22;60446;50.752;4.352;2023-07-08T00:35:44;19.00;65.10
72440;DHT22;60446;50.752;4.352;2023-07-08T00:38:24;19.00;65.00
72440;DHT22;60446;50.752;4.352;2023-07-08T00:43:48;19.00;64.80
72440;DHT22;60446;50.752;4.352;2023-07-08T00:51:37;18.90;64.90
72440;DHT22;60446;50.752;4.352;2023-07-08T00:54:10;18.90;65.20
72440;DHT22;60446;50.752;4.352;2023-07-08T00:57:00;18.90;65.60
72440;DHT22;60446;50.752;4.352;2023-07-08T00:59:36;18.80;65.70
72440;DHT22;60446;50.752;4.352;2023-07-08T01:02:08;18.90;64.50
72440;DHT22;60446;50.752;4.352;2023-07-08T01:05:06;18.90;64.40
72440;DHT22;60446;50.752;4.352;2023-07-08T01:07:39;18.90;64.60
72440;DHT22;60446;50.752;4.352;2023-07-08T01:10:13;18.80;65.00
72440;DHT22;60446;50.752;4.352;2023-07-08T01:12:47;18.80;64.80
72440;DHT22;60446;50.752;4.352;2023-07-08T01:15:17;18.80;64.90
72440;DHT22;60446;50.752;4.352;2023-07-08T01:17:45;18.80;65.60
72440;DHT22;60446;50.752;4.352;2023-07-08T01:20:13;18.70;65.30
72440;DHT22;60446;50.752;4.352;2023-07-08T01:22:42;18.80;65.00
72440;DHT22;60446;50.752;4.352;2023-07-08T01:25:10;18.70;65.00
72440;DHT22;60446;50.752;4.352;2023-07-08T01:27:43;18.70;64.80
72440;DHT22;60446;50.752;4.352;2023-07-08T01:30:14;18.60;65.50
72440;DHT22;60446;50.752;4.352;2023-07-08T01:32:49;18.50;66.00
72440;DHT22;60446;50.752;4.352;2023-07-08T01:35:18;18.50;66.10
72440;DHT22;60446;50.752;4.352;2023-07-08T01:37:53;18.40;66.10
72440;DHT22;60446;50.752;4.352;2023-07-08T01:40:33;18.30;66.20
72440;DHT22;60446;50.752;4.352;2023-07-08T01:43:03;18.30;66.80
72440;DHT22;60446;50.752;4.352;2023-07-08T01:45:38;18.20;67.50
72440;DHT22;60446;50.752;4.352;2023-07-08T01:48:15;18.10;67.70
72440;DHT22;60446;50.752;4.352;2023-07-08T01:50:51;18.10;67.50
72440;DHT22;60446;50.752;4.352;2023-07-08T01:53:32;18.00;68.50
72440;DHT22;60446;50.752;4.352;2023-07-08T01:56:01;18.00;68.10
72440;DHT22;60446;50.752;4.352;2023-07-08T01:58:30;18.00;68.10
72440;DHT22;60446;50.752;4.352;2023-07-08T02:00:58;18.00;67.60
72440;DHT22;60446;50.752;4.352;2023-07-08T02:03:26;18.00;67.90
72440;DHT22;60446;50.752;4.352;2023-07-08T02:05:54;18.00;68.50
72440;DHT22;60446;50.752;4.352;2023-07-08T02:08:22;18.00;68.40
72440;DHT22;60446;50.752;4.352;2023-07-08T02:10:52;17.90;68.90
72440;DHT22;60446;50.752;4.352;2023-07-08T02:13:21;17.90;68.40
72440;DHT22;60446;50.752;4.352;2023-07-08T02:15:50;17.90;69.00
72440;DHT22;60446;50.752;4.352;2023-07-08T02:18:17;17.80;68.80
72440;DHT22;60446;50.752;4.352;2023-07-08T02:20:47;17.80;69.00
72440;DHT22;60446;50.752;4.352;2023-07-08T02:23:15;17.80;68.80
72440;DHT22;60446;50.752;4.352;2023-07-08T02:25:53;17.70;68.60
72440;DHT22;60446;50.752;4.352;2023-07-08T02:28:22;17.70;68.70
72440;DHT22;60446;50.752;4.352;2023-07-08T02:30:49;17.70;69.20
72440;DHT22;60446;50.752;4.352;2023-07-08T02:33:16;17.60;69.10
72440;DHT22;60446;50.752;4.352;2023-07-08T02:35:46;17.60;69.30
72440;DHT22;60446;50.752;4.352;2023-07-08T02:38:13;17.60;69.80
72440;DHT22;60446;50.752;4.352;2023-07-08T02:40:42;17.60;70.30
72440;DHT22;60446;50.752;4.352;2023-07-08T02:43:09;17.60;70.20
72440;DHT22;60446;50.752;4.352;2023-07-08T02:45:37;17.60;69.40
72440;DHT22;60446;50.752;4.352;2023-07-08T02:48:05;17.60;69.90
72440;DHT22;60446;50.752;4.352;2023-07-08T02:50:32;17.60;69.10
72440;DHT22;60446;50.752;4.352;2023-07-08T02:52:59;17.70;68.90
72440;DHT22;60446;50.752;4.352;2023-07-08T02:55:26;17.70;69.00
72440;DHT22;60446;50.752;4.352;2023-07-08T02:57:53;17.70;69.20
72440;DHT22;60446;50.752;4.352;2023-07-08T03:00:20;17.70;68.90
72440;DHT22;60446;50.752;4.352;2023-07-08T03:02:47;17.70;69.80
72440;DHT22;60446;50.752;4.352;2023-07-08T03:05:15;17.70;69.50
72440;DHT22;60446;50.752;4.352;2023-07-08T03:07:42;17.70;69.20
72440;DHT22;60446;50.752;4.352;2023-07-08T03:10:09;17.70;69.40
72440;DHT22;60446;50.752;4.352;2023-07-08T03:12:36;17.70;69.70
72440;DHT22;60446;50.752;4.352;2023-07-08T03:15:05;17.70;69.70
72440;DHT22;60446;50.752;4.352;2023-07-08T03:17:32;17.80;69.60
72440;DHT22;60446;50.752;4.352;2023-07-08T03:19:59;17.80;69.40
72440;DHT22;60446;50.752;4.352;2023-07-08T03:22:26;17.80;69.70
72440;DHT22;60446;50.752;4.352;2023-07-08T03:24:53;17.80;69.50
72440;DHT22;60446;50.752;4.352;2023-07-08T03:27:21;17.80;69.30
72440;DHT22;60446;50.752;4.352;2023-07-08T03:29:50;17.80;69.50
72440;DHT22;60446;50.752;4.352;2023-07-08T03:32:17;17.80;69.00
72440;DHT22;60446;50.752;4.352;2023-07-08T03:34:44;17.80;69.00
72440;DHT22;60446;50.752;4.352;2023-07-08T03:37:12;17.70;69.20
72440;DHT22;60446;50.752;4.352;2023-07-08T03:39:40;17.70;69.80
72440;DHT22;60446;50.752;4.352;2023-07-08T03:42:07;17.70;69.30
72440;DHT22;60446;50.752;4.352;2023-07-08T03:44:34;17.60;69.30
72440;DHT22;60446;50.752;4.352;2023-07-08T03:47:02;17.60;69.60
72440;DHT22;60446;50.752;4.352;2023-07-08T03:49:29;17.50;69.50
72440;DHT22;60446;50.752;4.352;2023-07-08T03:51:56;17.60;69.60
72440;DHT22;60446;50.752;4.352;2023-07-08T03:54:24;17.50;69.90
72440;DHT22;60446;50.752;4.352;2023-07-08T03:56:55;17.50;69.90
72440;DHT22;60446;50.752;4.352;2023-07-08T03:59:24;17.50;69.90
72440;DHT22;60446;50.752;4.352;2023-07-08T04:01:54;17.50;69.90
72440;DHT22;60446;50.752;4.352;2023-07-08T04:04:23;17.50;70.00
72440;DHT22;60446;50.752;4.352;2023-07-08T04:06:50;17.40;70.10
72440;DHT22;60446;50.752;4.352;2023-07-08T04:09:19;17.40;70.00
72440;DHT22;60446;50.752;4.352;2023-07-08T04:11:46;17.40;70.00
72440;DHT22;60446;50.752;4.352;2023-07-08T04:14:13;17.40;70.60
72440;DHT22;60446;50.752;4.352;2023-07-08T04:16:49;17.30;70.80
72440;DHT22;60446;50.752;4.352;2023-07-08T04:19:19;17.30;70.90
72440;DHT22;60446;50.752;4.352;2023-07-08T04:21:46;17.30;71.30
72440;DHT22;60446;50.752;4.352;2023-07-08T04:24:15;17.30;71.50
72440;DHT22;60446;50.752;4.352;2023-07-08T04:26:44;17.30;71.30
72440;DHT22;60446;50.752;4.352;2023-07-08T04:29:17;17.30;71.40
72440;DHT22;60446;50.752;4.352;2023-07-08T04:31:46;17.30;71.50
72440;DHT22;60446;50.752;4.352;2023-07-08T04:34:15;17.40;71.70
72440;DHT22;60446;50.752;4.352;2023-07-08T04:36:43;17.30;71.80
72440;DHT22;60446;50.752;4.352;2023-07-08T04:39:11;17.40;71.80
72440;DHT22;60446;50.752;4.352;2023-07-08T04:41:40;17.50;71.80
72440;DHT22;60446;50.752;4.352;2023-07-08T04:44:08;17.50;72.20
72440;DHT22;60446;50.752;4.352;2023-07-08T04:46:45;17.50;72.50
72440;DHT22;60446;50.752;4.352;2023-07-08T04:49:18;17.50;72.30
72440;DHT22;60446;50.752;4.352;2023-07-08T04:51:45;17.60;72.40
72440;DHT22;60446;50.752;4.352;2023-07-08T04:54:13;17.60;72.20
72440;DHT22;60446;50.752;4.352;2023-07-08T04:56:43;17.70;72.30
72440;DHT22;60446;50.752;4.352;2023-07-08T04:59:17;17.80;72.40
72440;DHT22;60446;50.752;4.352;2023-07-08T05:01:45;17.90;72.40
72440;DHT22;60446;50.752;4.352;2023-07-08T05:04:18;18.00;72.50
72440;DHT22;60446;50.752;4.352;2023-07-08T05:06:46;18.10;71.90
72440;DHT22;60446;50.752;4.352;2023-07-08T05:09:13;18.20;71.60
72440;DHT22;60446;50.752;4.352;2023-07-08T05:11:43;18.30;70.40
72440;DHT22;60446;50.752;4.352;2023-07-08T05:14:12;18.40;70.00
72440;DHT22;60446;50.752;4.352;2023-07-08T05:16:39;18.50;70.00
72440;DHT22;60446;50.752;4.352;2023-07-08T05:19:07;18.50;70.00
72440;DHT22;60446;50.752;4.352;2023-07-08T05:21:34;18.60;69.60
72440;DHT22;60446;50.752;4.352;2023-07-08T05:24:03;18.70;69.30
72440;DHT22;60446;50.752;4.352;2023-07-08T05:26:32;18.80;69.40
72440;DHT22;60446;50.752;4.352;2023-07-08T05:29:00;18.90;68.90
72440;DHT22;60446;50.752;4.352;2023-07-08T05:31:28;19.00;68.60
72440;DHT22;60446;50.752;4.352;2023-07-08T05:33:58;19.00;67.10
72440;DHT22;60446;50.752;4.352;2023-07-08T05:36:25;19.10;67.00
72440;DHT22;60446;50.752;4.352;2023-07-08T05:38:52;19.20;66.60
72440;DHT22;60446;50.752;4.352;2023-07-08T05:41:20;19.20;65.70
72440;DHT22;60446;50.752;4.352;2023-07-08T05:43:47;19.30;65.90
72440;DHT22;60446;50.752;4.352;2023-07-08T05:46:14;19.40;64.90
72440;DHT22;60446;50.752;4.352;2023-07-08T05:48:41;19.40;65.00
72440;DHT22;60446;50.752;4.352;2023-07-08T05:51:08;19.50;65.20
72440;DHT22;60446;50.752;4.352;2023-07-08T05:53:36;19.60;65.40
72440;DHT22;60446;50.752;4.352;2023-07-08T05:56:03;19.60;65.90
72440;DHT22;60446;50.752;4.352;2023-07-08T05:58:31;19.60;65.60
72440;DHT22;60446;50.752;4.352;2023-07-08T06:00:58;19.70;65.50
72440;DHT22;60446;50.752;4.352;2023-07-08T06:03:26;19.80;64.50
72440;DHT22;60446;50.752;4.352;2023-07-08T06:05:53;19.90;64.50
72440;DHT22;60446;50.752;4.352;2023-07-08T06:08:21;20.00;64.10
72440;DHT22;60446;50.752;4.352;2023-07-08T06:10:49;20.10;64.20
72440;DHT22;60446;50.752;4.352;2023-07-08T06:13:17;20.10;63.90
72440;DHT22;60446;50.752;4.352;2023-07-08T06:15:44;20.30;63.80
72440;DHT22;60446;50.752;4.352;2023-07-08T06:18:12;20.40;63.80
72440;DHT22;60446;50.752;4.352;2023-07-08T06:20:39;20.40;62.60
72440;DHT22;60446;50.752;4.352;2023-07-08T06:23:06;20.60;62.60
72440;DHT22;60446;50.752;4.352;2023-07-08T06:25:33;20.70;62.90
72440;DHT22;60446;50.752;4.352;2023-07-08T06:28:01;20.70;61.30
72440;DHT22;60446;50.752;4.352;2023-07-08T06:30:28;20.90;61.50
72440;DHT22;60446;50.752;4.352;2023-07-08T06:32:55;21.00;62.40
72440;DHT22;60446;50.752;4.352;2023-07-08T06:35:26;21.20;61.90
72440;DHT22;60446;50.752;4.352;2023-07-08T06:37:53;21.30;62.40
72440;DHT22;60446;50.752;4.352;2023-07-08T06:40:20;21.40;62.40
72440;DHT22;60446;50.752;4.352;2023-07-08T06:42:47;21.50;61.40
72440;DHT22;60446;50.752;4.352;2023-07-08T06:45:22;21.60;62.60
72440;DHT22;60446;50.752;4.352;2023-07-08T06:47:49;21.70;61.40
72440;DHT22;60446;50.752;4.352;2023-07-08T06:50:16;21.80;61.70
72440;DHT22;60446;50.752;4.352;2023-07-08T06:52:43;21.90;62.20
72440;DHT22;60446;50.752;4.352;2023-07-08T06:55:11;21.90;60.10
72440;DHT22;60446;50.752;4.352;2023-07-08T06:57:38;22.10;60.00
72440;DHT22;60446;50.752;4.352;2023-07-08T07:00:10;22.20;60.60
72440;DHT22;60446;50.752;4.352;2023-07-08T07:02:38;22.30;60.50
72440;DHT22;60446;50.752;4.352;2023-07-08T07:05:06;22.50;59.20
72440;DHT22;60446;50.752;4.352;2023-07-08T07:07:34;22.60;58.50
72440;DHT22;60446;50.752;4.352;2023-07-08T07:10:02;22.60;58.50
72440;DHT22;60446;50.752;4.352;2023-07-08T07:12:30;22.70;58.10
72440;DHT22;60446;50.752;4.352;2023-07-08T07:14:57;22.80;56.70
72440;DHT22;60446;50.752;4.352;2023-07-08T07:17:24;22.90;57.90
72440;DHT22;60446;50.752;4.352;2023-07-08T07:19:53;22.90;56.30
72440;DHT22;60446;50.752;4.352;2023-07-08T07:22:21;23.00;57.30
72440;DHT22;60446;50.752;4.352;2023-07-08T07:24:48;23.20;57.20
72440;DHT22;60446;50.752;4.352;2023-07-08T07:27:16;23.30;56.70
72440;DHT22;60446;50.752;4.352;2023-07-08T07:29:48;23.40;55.40
72440;DHT22;60446;50.752;4.352;2023-07-08T07:32:18;23.60;53.60
72440;DHT22;60446;50.752;4.352;2023-07-08T07:34:47;23.80;54.20
72440;DHT22;60446;50.752;4.352;2023-07-08T07:37:17;23.80;55.20
72440;DHT22;60446;50.752;4.352;2023-07-08T07:39:46;24.00;55.40
72440;DHT22;60446;50.752;4.352;2023-07-08T07:42:14;24.20;56.30
72440;DHT22;60446;50.752;4.352;2023-07-08T07:44:43;24.20;56.30
72440;DHT22;60446;50.752;4.352;2023-07-08T07:47:11;24.30;53.10
72440;DHT22;60446;50.752;4.352;2023-07-08T07:49:39;24.40;53.20
72440;DHT22;60446;50.752;4.352;2023-07-08T07:52:07;24.60;52.60
72440;DHT22;60446;50.752;4.352;2023-07-08T07:54:34;24.70;52.00
72440;DHT22;60446;50.752;4.352;2023-07-08T07:57:01;24.70;50.80
72440;DHT22;60446;50.752;4.352;2023-07-08T07:59:28;24.70;51.90
72440;DHT22;60446;50.752;4.352;2023-07-08T08:01:56;25.00;50.60
72440;DHT22;60446;50.752;4.352;2023-07-08T08:04:23;25.10;50.00
72440;DHT22;60446;50.752;4.352;2023-07-08T08:06:50;25.10;50.20
72440;DHT22;60446;50.752;4.352;2023-07-08T08:09:17;25.20;51.20
72440;DHT22;60446;50.752;4.352;2023-07-08T08:11:44;25.30;51.40
72440;DHT22;60446;50.752;4.352;2023-07-08T08:14:12;25.30;50.90
72440;DHT22;60446;50.752;4.352;2023-07-08T08:16:39;25.40;49.50
72440;DHT22;60446;50.752;4.352;2023-07-08T08:19:06;25.40;49.00
72440;DHT22;60446;50.752;4.352;2023-07-08T08:21:35;25.50;48.80
72440;DHT22;60446;50.752;4.352;2023-07-08T08:24:02;25.70;50.20
72440;DHT22;60446;50.752;4.352;2023-07-08T08:26:29;25.70;49.10
72440;DHT22;60446;50.752;4.352;2023-07-08T08:28:57;25.70;49.60
72440;DHT22;60446;50.752;4.352;2023-07-08T08:31:24;25.70;50.20
72440;DHT22;60446;50.752;4.352;2023-07-08T08:33:52;25.80;51.10
72440;DHT22;60446;50.752;4.352;2023-07-08T08:36:19;25.90;48.90
72440;DHT22;60446;50.752;4.352;2023-07-08T08:38:47;26.20;48.10
72440;DHT22;60446;50.752;4.352;2023-07-08T08:41:24;26.30;48.40
72440;DHT22;60446;50.752;4.352;2023-07-08T08:43:57;26.30;47.30
72440;DHT22;60446;50.752;4.352;2023-07-08T08:49:29;26.50;49.30
72440;DHT22;60446;50.752;4.352;2023-07-08T08:51:59;26.70;46.90
72440;DHT22;60446;50.752;4.352;2023-07-08T08:54:26;26.70;48.80
72440;DHT22;60446;50.752;4.352;2023-07-08T09:00:11;26.90;46.60
72440;DHT22;60446;50.752;4.352;2023-07-08T09:05:20;26.90;46.50
72440;DHT22;60446;50.752;4.352;2023-07-08T09:08:16;26.90;45.80
72440;DHT22;60446;50.752;4.352;2023-07-08T09:10:52;27.00;46.80
72440;DHT22;60446;50.752;4.352;2023-07-08T09:13:32;27.10;47.10
72440;DHT22;60446;50.752;4.352;2023-07-08T09:16:29;27.20;47.50
72440;DHT22;60446;50.752;4.352;2023-07-08T09:22:14;27.40;45.00
72440;DHT22;60446;50.752;4.352;2023-07-08T09:27:38;27.60;44.80
72440;DHT22;60446;50.752;4.352;2023-07-08T09:30:17;27.70;45.20
72440;DHT22;60446;50.752;4.352;2023-07-08T09:32:50;27.70;46.40
72440;DHT22;60446;50.752;4.352;2023-07-08T09:35:29;27.80;45.20
72440;DHT22;60446;50.752;4.352;2023-07-08T09:38:13;28.00;43.40
72440;DHT22;60446;50.752;4.352;2023-07-08T09:40:47;28.10;43.30
72440;DHT22;60446;50.752;4.352;2023-07-08T09:45:58;28.30;44.10
72440;DHT22;60446;50.752;4.352;2023-07-08T09:48:29;28.30;45.80
72440;DHT22;60446;50.752;4.352;2023-07-08T09:51:03;28.40;45.20
72440;DHT22;60446;50.752;4.352;2023-07-08T09:53:33;28.50;46.70
72440;DHT22;60446;50.752;4.352;2023-07-08T09:56:03;28.60;43.40
72440;DHT22;60446;50.752;4.352;2023-07-08T09:58:36;28.70;45.60
72440;DHT22;60446;50.752;4.352;2023-07-08T10:01:23;28.70;45.60
72440;DHT22;60446;50.752;4.352;2023-07-08T10:03:51;28.70;43.50
72440;DHT22;60446;50.752;4.352;2023-07-08T10:06:30;28.70;43.10
72440;DHT22;60446;50.752;4.352;2023-07-08T10:09:08;28.80;44.30
72440;DHT22;60446;50.752;4.352;2023-07-08T10:11:43;28.90;43.90
72440;DHT22;60446;50.752;4.352;2023-07-08T10:14:27;28.90;44.60
72440;DHT22;60446;50.752;4.352;2023-07-08T10:16:57;29.00;42.70
72440;DHT22;60446;50.752;4.352;2023-07-08T10:19:24;29.20;41.80
72440;DHT22;60446;50.752;4.352;2023-07-08T10:30:57;29.70;41.20
72440;DHT22;60446;50.752;4.352;2023-07-08T10:39:41;29.90;42.40
72440;DHT22;60446;50.752;4.352;2023-07-08T10:48:17;30.30;41.40
72440;DHT22;60446;50.752;4.352;2023-07-08T10:50:54;30.30;44.00
72440;DHT22;60446;50.752;4.352;2023-07-08T10:53:41;30.50;43.10
72440;DHT22;60446;50.752;4.352;2023-07-08T10:56:28;30.70;44.60
72440;DHT22;60446;50.752;4.352;2023-07-08T11:05:31;31.00;41.40
72440;DHT22;60446;50.752;4.352;2023-07-08T11:08:11;30.90;42.20
72440;DHT22;60446;50.752;4.352;2023-07-08T11:11:08;31.10;41.40
72440;DHT22;60446;50.752;4.352;2023-07-08T11:13:49;31.00;41.40
72440;DHT22;60446;50.752;4.352;2023-07-08T11:16:26;31.00;41.60
72440;DHT22;60446;50.752;4.352;2023-07-08T11:19:17;31.20;40.90
72440;DHT22;60446;50.752;4.352;2023-07-08T11:21:53;31.30;41.40
72440;DHT22;60446;50.752;4.352;2023-07-08T11:24:34;31.30;40.60
72440;DHT22;60446;50.752;4.352;2023-07-08T11:27:19;31.40;42.40
72440;DHT22;60446;50.752;4.352;2023-07-08T11:32:40;31.60;42.70
72440;DHT22;60446;50.752;4.352;2023-07-08T11:35:23;31.80;43.40
72440;DHT22;60446;50.752;4.352;2023-07-08T11:38:01;31.80;41.80
72440;DHT22;60446;50.752;4.352;2023-07-08T11:40:29;31.80;42.60
72440;DHT22;60446;50.752;4.352;2023-07-08T11:43:03;31.90;43.20
72440;DHT22;60446;50.752;4.352;2023-07-08T11:45:38;32.20;41.70
72440;DHT22;60446;50.752;4.352;2023-07-08T11:48:29;32.20;42.30
72440;DHT22;60446;50.752;4.352;2023-07-08T11:51:03;32.40;42.50
72440;DHT22;60446;50.752;4.352;2023-07-08T11:53:38;32.60;43.50
72440;DHT22;60446;50.752;4.352;2023-07-08T11:59:04;32.80;40.80
72440;DHT22;60446;50.752;4.352;2023-07-08T12:01:51;32.90;42.70
72440;DHT22;60446;50.752;4.352;2023-07-08T12:04:59;32.90;42.30
72440;DHT22;60446;50.752;4.352;2023-07-08T12:07:46;32.80;42.40
72440;DHT22;60446;50.752;4.352;2023-07-08T12:10:18;33.00;43.90
72440;DHT22;60446;50.752;4.352;2023-07-08T12:12:49;33.20;41.50
72440;DHT22;60446;50.752;4.352;2023-07-08T12:15:25;33.10;39.90
72440;DHT22;60446;50.752;4.352;2023-07-08T12:18:01;32.90;40.10
72440;DHT22;60446;50.752;4.352;2023-07-08T12:20:38;32.70;41.50
72440;DHT22;60446;50.752;4.352;2023-07-08T12:23:20;32.50;42.00
72440;DHT22;60446;50.752;4.352;2023-07-08T12:25:49;32.10;43.30
72440;DHT22;60446;50.752;4.352;2023-07-08T12:28:18;32.00;43.00
72440;DHT22;60446;50.752;4.352;2023-07-08T12:30:47;32.00;44.30
72440;DHT22;60446;50.752;4.352;2023-07-08T12:33:28;31.90;42.60
72440;DHT22;60446;50.752;4.352;2023-07-08T12:36:00;31.80;44.10
72440;DHT22;60446;50.752;4.352;2023-07-08T12:38:37;31.80;44.30
72440;DHT22;60446;50.752;4.352;2023-07-08T12:44:00;31.60;45.40
72440;DHT22;60446;50.752;4.352;2023-07-08T12:46:28;31.10;47.20
72440;DHT22;60446;50.752;4.352;2023-07-08T12:48:56;30.60;47.50
72440;DHT22;60446;50.752;4.352;2023-07-08T12:51:25;30.10;49.00
72440;DHT22;60446;50.752;4.352;2023-07-08T12:53:54;30.00;48.70
72440;DHT22;60446;50.752;4.352;2023-07-08T12:56:23;30.00;49.10
72440;DHT22;60446;50.752;4.352;2023-07-08T12:58:54;30.20;48.40
72440;DHT22;60446;50.752;4.352;2023-07-08T13:01:26;30.30;48.90
72440;DHT22;60446;50.752;4.352;2023-07-08T13:04:06;30.60;49.50
72440;DHT22;60446;50.752;4.352;2023-07-08T13:06:38;30.80;47.30
72440;DHT22;60446;50.752;4.352;2023-07-08T13:09:17;30.90;45.50
72440;DHT22;60446;50.752;4.352;2023-07-08T13:11:54;30.90;46.50
72440;DHT22;60446;50.752;4.352;2023-07-08T13:14:24;31.00;47.30
72440;DHT22;60446;50.752;4.352;2023-07-08T13:16:51;31.10;44.50
72440;DHT22;60446;50.752;4.352;2023-07-08T13:19:19;31.20;45.80
72440;DHT22;60446;50.752;4.352;2023-07-08T13:21:50;31.40;46.20
72440;DHT22;60446;50.752;4.352;2023-07-08T13:24:18;31.50;46.80
72440;DHT22;60446;50.752;4.352;2023-07-08T13:26:47;31.40;45.60
72440;DHT22;60446;50.752;4.352;2023-07-08T13:29:17;31.10;46.10
72440;DHT22;60446;50.752;4.352;2023-07-08T13:31:53;31.00;47.20
72440;DHT22;60446;50.752;4.352;2023-07-08T13:34:24;31.00;47.50
72440;DHT22;60446;50.752;4.352;2023-07-08T13:36:52;30.90;47.20
72440;DHT22;60446;50.752;4.352;2023-07-08T13:39:33;30.90;48.30
72440;DHT22;60446;50.752;4.352;2023-07-08T13:42:03;31.00;47.90
72440;DHT22;60446;50.752;4.352;2023-07-08T13:44:33;31.00;48.10
72440;DHT22;60446;50.752;4.352;2023-07-08T13:47:01;30.90;48.70
72440;DHT22;60446;50.752;4.352;2023-07-08T13:49:39;30.80;48.40
72440;DHT22;60446;50.752;4.352;2023-07-08T13:54:52;30.80;49.10
72440;DHT22;60446;50.752;4.352;2023-07-08T13:57:33;31.10;49.70
72440;DHT22;60446;50.752;4.352;2023-07-08T14:00:05;31.50;48.90
72440;DHT22;60446;50.752;4.352;2023-07-08T14:02:44;31.80;47.70
72440;DHT22;60446;50.752;4.352;2023-07-08T14:05:13;32.20;46.30
72440;DHT22;60446;50.752;4.352;2023-07-08T14:07:41;32.50;44.40
72440;DHT22;60446;50.752;4.352;2023-07-08T14:10:13;32.70;45.70
72440;DHT22;60446;50.752;4.352;2023-07-08T14:12:40;33.10;45.40
72440;DHT22;60446;50.752;4.352;2023-07-08T14:15:08;33.40;43.40
72440;DHT22;60446;50.752;4.352;2023-07-08T14:17:37;33.60;38.80
72440;DHT22;60446;50.752;4.352;2023-07-08T14:20:14;33.60;39.10
72440;DHT22;60446;50.752;4.352;2023-07-08T14:22:42;33.70;39.70
72440;DHT22;60446;50.752;4.352;2023-07-08T14:25:10;33.80;41.00
72440;DHT22;60446;50.752;4.352;2023-07-08T14:27:41;33.80;39.90
72440;DHT22;60446;50.752;4.352;2023-07-08T14:30:09;34.00;42.20
72440;DHT22;60446;50.752;4.352;2023-07-08T14:32:37;34.20;41.80
72440;DHT22;60446;50.752;4.352;2023-07-08T14:35:25;34.30;43.50
72440;DHT22;60446;50.752;4.352;2023-07-08T14:37:55;34.30;43.40
72440;DHT22;60446;50.752;4.352;2023-07-08T14:40:37;34.40;43.10
72440;DHT22;60446;50.752;4.352;2023-07-08T14:45:49;34.40;42.30
72440;DHT22;60446;50.752;4.352;2023-07-08T14:48:18;34.30;42.50
72440;DHT22;60446;50.752;4.352;2023-07-08T14:50:45;34.40;44.70
72440;DHT22;60446;50.752;4.352;2023-07-08T14:53:17;34.30;42.30
72440;DHT22;60446;50.752;4.352;2023-07-08T14:55:50;34.50;43.30
72440;DHT22;60446;50.752;4.352;2023-07-08T14:58:28;34.20;42.30
72440;DHT22;60446;50.752;4.352;2023-07-08T15:00:57;34.10;41.70
72440;DHT22;60446;50.752;4.352;2023-07-08T15:03:26;34.40;41.70
72440;DHT22;60446;50.752;4.352;2023-07-08T15:05:54;35.00;40.50
72440;DHT22;60446;50.752;4.352;2023-07-08T15:08:21;36.10;39.40
72440;DHT22;60446;50.752;4.352;2023-07-08T15:10:52;37.10;39.30
72440;DHT22;60446;50.752;4.352;2023-07-08T15:13:22;37.60;36.90
72440;DHT22;60446;50.752;4.352;2023-07-08T15:15:52;37.80;37.70
72440;DHT22;60446;50.752;4.352;2023-07-08T15:18:20;38.30;36.40
72440;DHT22;60446;50.752;4.352;2023-07-08T15:20:47;38.40;38.30
72440;DHT22;60446;50.752;4.352;2023-07-08T15:23:14;39.10;38.90
72440;DHT22;60446;50.752;4.352;2023-07-08T15:25:43;39.20;37.80
72440;DHT22;60446;50.752;4.352;2023-07-08T15:28:25;39.50;36.90
72440;DHT22;60446;50.752;4.352;2023-07-08T15:31:04;39.80;35.30
72440;DHT22;60446;50.752;4.352;2023-07-08T15:33:31;39.20;36.50
72440;DHT22;60446;50.752;4.352;2023-07-08T15:35:58;39.00;37.20
72440;DHT22;60446;50.752;4.352;2023-07-08T15:38:25;39.30;36.40
72440;DHT22;60446;50.752;4.352;2023-07-08T15:40:53;39.50;36.10
72440;DHT22;60446;50.752;4.352;2023-07-08T15:43:20;39.30;37.00
72440;DHT22;60446;50.752;4.352;2023-07-08T15:45:47;39.00;36.10
72440;DHT22;60446;50.752;4.352;2023-07-08T15:48:16;39.00;38.80
72440;DHT22;60446;50.752;4.352;2023-07-08T15:50:44;38.90;36.40
72440;DHT22;60446;50.752;4.352;2023-07-08T15:53:13;39.20;38.00
72440;DHT22;60446;50.752;4.352;2023-07-08T15:55:43;39.50;36.70
72440;DHT22;60446;50.752;4.352;2023-07-08T15:58:25;39.70;36.50
72440;DHT22;60446;50.752;4.352;2023-07-08T16:00:59;39.70;37.10
72440;DHT22;60446;50.752;4.352;2023-07-08T16:03:30;39.50;36.70
72440;DHT22;60446;50.752;4.352;2023-07-08T16:05:59;39.50;36.70
72440;DHT22;60446;50.752;4.352;2023-07-08T16:08:26;39.60;35.40
72440;DHT22;60446;50.752;4.352;2023-07-08T16:11:00;39.60;36.30
72440;DHT22;60446;50.752;4.352;2023-07-08T16:13:32;39.40;36.30
72440;DHT22;60446;50.752;4.352;2023-07-08T16:16:01;39.00;37.00
72440;DHT22;60446;50.752;4.352;2023-07-08T16:18:29;38.60;38.90
72440;DHT22;60446;50.752;4.352;2023-07-08T16:20:56;38.10;37.80
72440;DHT22;60446;50.752;4.352;2023-07-08T16:23:24;37.40;37.20
72440;DHT22;60446;50.752;4.352;2023-07-08T16:25:52;36.90;39.10
72440;DHT22;60446;50.752;4.352;2023-07-08T16:31:27;36.50;39.00
72440;DHT22;60446;50.752;4.352;2023-07-08T16:33:55;36.90;38.70
72440;DHT22;60446;50.752;4.352;2023-07-08T16:36:24;37.30;38.90
72440;DHT22;60446;50.752;4.352;2023-07-08T16:38:53;37.70;37.60
72440;DHT22;60446;50.752;4.352;2023-07-08T16:41:24;37.90;37.10
72440;DHT22;60446;50.752;4.352;2023-07-08T16:44:20;37.90;37.50
72440;DHT22;60446;50.752;4.352;2023-07-08T16:46:47;38.40;36.00
72440;DHT22;60446;50.752;4.352;2023-07-08T16:49:15;38.50;35.80
72440;DHT22;60446;50.752;4.352;2023-07-08T16:51:43;38.50;36.00
72440;DHT22;60446;50.752;4.352;2023-07-08T16:54:15;38.90;35.50
72440;DHT22;60446;50.752;4.352;2023-07-08T16:56:46;39.20;35.30
72440;DHT22;60446;50.752;4.352;2023-07-08T16:59:15;39.70;34.90
72440;DHT22;60446;50.752;4.352;2023-07-08T17:01:44;39.70;34.50
72440;DHT22;60446;50.752;4.352;2023-07-08T17:04:12;39.80;34.20